createdAt,value
2023-04-18T00:01:11.443Z,100774.47
2023-04-18T00:03:39.556Z,100781.84
2023-04-18T00:06:07.846Z,100779.78
2023-04-18T00:08:36.470Z,100778.81
2023-04-18T00:11:04.280Z,100772.66
2023-04-18T00:13:33.684Z,100771.78
2023-04-18T00:16:01.781Z,100766.47
2023-04-18T00:18:29.437Z,100763.78
2023-04-18T00:20:57.894Z,100760.94
2023-04-18T00:23:37.151Z,100762.78
2023-04-18T00:26:04.801Z,100766.78
2023-04-18T00:28:34.036Z,100764.81
2023-04-18T00:31:01.793Z,100758.44
2023-04-18T00:33:29.487Z,100770.28
2023-04-18T00:35:57.148Z,100767.78
2023-04-18T00:38:24.765Z,100772.31
2023-04-18T00:40:52.363Z,100776.59
2023-04-18T00:43:26.813Z,100773.09
2023-04-18T00:45:59.423Z,100766.00
2023-04-18T00:48:27.401Z,100774.53
2023-04-18T00:50:55.512Z,100769.81
2023-04-18T00:53:23.216Z,100756.97
2023-04-18T00:55:51.174Z,100763.84
2023-04-18T00:58:20.944Z,100773.16
2023-04-18T01:00:49.212Z,100767.00
2023-04-18T01:03:19.182Z,100770.28
2023-04-18T01:05:48.446Z,100775.94
2023-04-18T01:08:18.110Z,100772.09
2023-04-18T01:10:47.982Z,100765.50
2023-04-18T01:13:17.408Z,100776.06
2023-04-18T01:15:46.751Z,100769.66
2023-04-18T01:18:17.032Z,100770.53
2023-04-18T01:20:48.299Z,100768.38
2023-04-18T01:23:16.632Z,100767.69
2023-04-18T01:25:46.419Z,100763.19
2023-04-18T01:28:16.801Z,100767.41
2023-04-18T01:30:44.439Z,100768.31
2023-04-18T01:33:12.312Z,100765.72
2023-04-18T01:35:39.955Z,100759.31
2023-04-18T01:38:07.837Z,100756.03
2023-04-18T01:40:35.738Z,100764.81
2023-04-18T01:43:06.036Z,100757.94
2023-04-18T01:45:33.629Z,100756.13
2023-04-18T01:48:01.376Z,100757.31
2023-04-18T01:50:29.072Z,100756.59
2023-04-18T01:52:56.669Z,100760.19
2023-04-18T01:55:24.475Z,100760.66
2023-04-18T01:57:52.673Z,100759.56
2023-04-18T02:00:22.537Z,100757.19
2023-04-18T02:02:50.999Z,100750.34
2023-04-18T02:05:19.067Z,100756.94
2023-04-18T02:07:47.628Z,100747.44
2023-04-18T02:10:15.534Z,100748.59
2023-04-18T02:12:43.108Z,100752.53
2023-04-18T02:15:11.734Z,100752.28
2023-04-18T02:17:42.064Z,100751.03
2023-04-18T02:20:13.191Z,100757.56
2023-04-18T02:22:40.751Z,100754.09
2023-04-18T02:25:08.963Z,100750.59
2023-04-18T02:27:36.613Z,100757.06
2023-04-18T02:30:05.464Z,100760.63
2023-04-18T02:32:33.123Z,100750.75
2023-04-18T02:35:02.171Z,100754.28
2023-04-18T02:37:29.805Z,100759.75
2023-04-18T02:39:58.626Z,100758.78
2023-04-18T02:42:27.326Z,100755.84
2023-04-18T02:44:55.024Z,100760.84
2023-04-18T02:47:22.675Z,100753.63
2023-04-18T02:49:50.937Z,100761.53
2023-04-18T02:52:22.814Z,100755.34
2023-04-18T02:54:50.387Z,100754.78
2023-04-18T02:57:18.352Z,100757.16
2023-04-18T02:59:46.062Z,100758.59
2023-04-18T03:02:13.774Z,100761.34
2023-04-18T03:04:41.356Z,100760.66
2023-04-18T03:07:08.970Z,100766.59
2023-04-18T03:09:42.057Z,100762.41
2023-04-18T03:12:10.121Z,100768.72
2023-04-18T03:14:47.753Z,100770.56
2023-04-18T03:17:15.807Z,100767.06
2023-04-18T03:22:26.281Z,100769.00
2023-04-18T03:24:55.336Z,100771.69
2023-04-18T03:27:23.041Z,100762.72
2023-04-18T03:29:51.000Z,100772.47
2023-04-18T03:32:21.485Z,100760.13
2023-04-18T03:34:49.775Z,100777.72
2023-04-18T03:37:17.473Z,100783.72
2023-04-18T03:39:45.067Z,100778.31
2023-04-18T03:42:13.974Z,100785.78
2023-04-18T03:44:41.593Z,100782.88
2023-04-18T03:47:09.349Z,100787.06
2023-04-18T03:49:37.088Z,100783.63
2023-04-18T03:52:04.776Z,100781.28
2023-04-18T03:54:32.666Z,100784.16
2023-04-18T03:57:05.356Z,100779.63
2023-04-18T03:59:34.416Z,100786.38
2023-04-18T04:02:02.113Z,100785.53
2023-04-18T04:04:31.433Z,100789.72
2023-04-18T04:06:59.475Z,100780.59
2023-04-18T04:09:27.143Z,100782.78
2023-04-18T04:11:54.820Z,100788.41
2023-04-18T04:14:22.850Z,100782.25
2023-04-18T04:16:54.529Z,100781.41
2023-04-18T04:19:22.102Z,100785.16
2023-04-18T04:21:49.750Z,100791.75
2023-04-18T04:24:17.423Z,100788.03
2023-04-18T04:26:45.015Z,100799.59
2023-04-18T04:29:13.777Z,100799.75
2023-04-18T04:31:41.393Z,100799.69
2023-04-18T04:34:13.645Z,100794.38
2023-04-18T04:36:43.098Z,100797.88
2023-04-18T04:39:11.321Z,100794.91
2023-04-18T04:41:40.290Z,100799.75
2023-04-18T04:44:10.395Z,100799.91
2023-04-18T04:46:39.453Z,100805.50
2023-04-18T04:49:10.299Z,100802.78
2023-04-18T04:51:40.060Z,100804.41
2023-04-18T04:54:10.375Z,100802.59
2023-04-18T04:56:39.751Z,100808.63
2023-04-18T04:59:07.759Z,100813.72
2023-04-18T05:01:35.429Z,100805.06
2023-04-18T05:04:03.546Z,100811.47
2023-04-18T05:06:33.985Z,100814.25
2023-04-18T05:09:05.240Z,100808.41
2023-04-18T05:11:33.131Z,100819.88
2023-04-18T05:14:00.790Z,100813.25
2023-04-18T05:16:28.658Z,100823.84
2023-04-18T05:18:56.578Z,100812.25
2023-04-18T05:21:26.152Z,100810.94
2023-04-18T05:23:54.051Z,100828.09
2023-04-18T05:26:23.077Z,100817.59
2023-04-18T05:28:50.692Z,100819.03
2023-04-18T05:31:18.667Z,100820.34
2023-04-18T05:33:46.273Z,100825.13
2023-04-18T05:36:13.860Z,100821.38
2023-04-18T05:38:41.547Z,100822.81
2023-04-18T05:41:09.131Z,100824.25
2023-04-18T05:43:38.056Z,100828.78
2023-04-18T05:46:06.259Z,100827.63
2023-04-18T05:48:34.050Z,100830.31
2023-04-18T05:51:01.971Z,100824.38
2023-04-18T05:53:29.683Z,100830.28
2023-04-18T05:55:59.011Z,100825.44
2023-04-18T05:58:28.681Z,100827.13
2023-04-18T06:00:57.821Z,100828.00
2023-04-18T06:03:25.835Z,100833.69
2023-04-18T06:05:53.886Z,100834.28
2023-04-18T06:08:21.518Z,100842.59
2023-04-18T06:10:49.127Z,100846.03
2023-04-18T06:13:16.916Z,100843.44
2023-04-18T06:15:44.736Z,100849.63
2023-04-18T06:18:13.849Z,100857.59
2023-04-18T06:20:42.090Z,100867.13
2023-04-18T06:23:09.728Z,100860.94
2023-04-18T06:25:37.599Z,100851.75
2023-04-18T06:28:05.604Z,100867.06
2023-04-18T06:30:35.679Z,100850.03
2023-04-18T06:33:03.346Z,100867.59
2023-04-18T06:35:35.751Z,100862.50
2023-04-18T06:38:03.331Z,100866.66
2023-04-18T06:40:31.032Z,100875.22
2023-04-18T06:42:58.899Z,100879.41
2023-04-18T06:45:26.673Z,100872.25
2023-04-18T06:47:54.446Z,100869.28
2023-04-18T06:50:22.510Z,100872.84
2023-04-18T06:52:51.774Z,100874.03
2023-04-18T06:55:19.616Z,100874.50
2023-04-18T06:57:47.224Z,100875.34
2023-04-18T07:00:16.056Z,100877.31
2023-04-18T07:02:44.108Z,100873.81
2023-04-18T07:05:12.100Z,100881.72
2023-04-18T07:07:40.188Z,100882.56
2023-04-18T07:10:11.445Z,100874.00
2023-04-18T07:12:42.176Z,100881.72
2023-04-18T07:15:11.299Z,100868.41
2023-04-18T07:17:39.039Z,100867.47
2023-04-18T07:20:08.298Z,100864.63
2023-04-18T07:22:35.884Z,100871.97
2023-04-18T07:25:07.559Z,100872.81
2023-04-18T07:27:46.608Z,100868.59
2023-04-18T07:30:16.029Z,100879.00
2023-04-18T07:32:43.882Z,100874.31
2023-04-18T07:35:11.758Z,100872.16
2023-04-18T07:37:39.528Z,100876.84
2023-04-18T07:40:08.493Z,100864.44
2023-04-18T07:42:36.079Z,100871.81
2023-04-18T07:45:05.874Z,100870.94
2023-04-18T07:47:37.615Z,100872.94
2023-04-18T07:50:06.155Z,100875.13
2023-04-18T07:52:37.298Z,100882.94
2023-04-18T07:55:06.684Z,100879.53
2023-04-18T07:57:34.929Z,100881.81
2023-04-18T08:00:04.886Z,100883.88
2023-04-18T08:02:34.488Z,100872.56
2023-04-18T08:05:02.460Z,100881.38
2023-04-18T08:07:30.456Z,100878.28
2023-04-18T08:09:58.035Z,100877.84
2023-04-18T08:12:25.629Z,100882.69
2023-04-18T08:14:53.169Z,100882.50
2023-04-18T08:17:20.910Z,100878.47
2023-04-18T08:19:50.636Z,100885.44
2023-04-18T08:22:18.249Z,100885.53
2023-04-18T08:24:57.468Z,100880.94
2023-04-18T08:27:31.906Z,100882.72
2023-04-18T08:29:59.788Z,100876.00
2023-04-18T08:32:27.450Z,100879.19
2023-04-18T08:34:56.955Z,100874.91
2023-04-18T08:37:28.077Z,100870.44
2023-04-18T08:39:56.882Z,100876.00
2023-04-18T08:42:24.815Z,100879.34
2023-04-18T08:45:02.053Z,100886.38
2023-04-18T08:47:30.389Z,100878.16
2023-04-18T08:49:59.771Z,100867.13
2023-04-18T08:52:31.211Z,100877.09
2023-04-18T08:55:04.583Z,100878.69
2023-04-18T08:57:33.364Z,100889.09
2023-04-18T09:00:01.912Z,100874.78
2023-04-18T09:02:39.239Z,100869.03
2023-04-18T09:05:15.010Z,100870.34
2023-04-18T09:07:43.931Z,100869.53
2023-04-18T09:10:14.724Z,100863.91
2023-04-18T09:12:50.327Z,100867.94
2023-04-18T09:15:22.437Z,100861.69
2023-04-18T09:17:53.364Z,100856.72
2023-04-18T09:20:36.656Z,100866.56
2023-04-18T09:23:11.041Z,100861.13
2023-04-18T09:25:47.041Z,100856.84
2023-04-18T09:28:26.987Z,100844.63
2023-04-18T09:30:58.733Z,100843.09
2023-04-18T09:33:29.115Z,100839.91
2023-04-18T09:36:16.499Z,100842.38
2023-04-18T09:38:44.457Z,100841.00
2023-04-18T09:41:19.174Z,100841.53
2023-04-18T09:43:49.301Z,100835.75
2023-04-18T09:46:21.679Z,100842.47
2023-04-18T09:48:49.408Z,100834.34
2023-04-18T09:51:19.397Z,100834.94
2023-04-18T09:53:47.595Z,100827.66
2023-04-18T09:56:20.962Z,100824.88
2023-04-18T09:58:56.018Z,100825.25
2023-04-18T10:01:28.824Z,100813.34
2023-04-18T10:03:58.126Z,100824.19
2023-04-18T10:06:30.818Z,100820.78
2023-04-18T10:09:00.400Z,100826.13
2023-04-18T10:11:28.281Z,100822.28
2023-04-18T10:13:59.410Z,100816.09
2023-04-18T10:16:27.678Z,100823.09
2023-04-18T10:18:56.569Z,100816.78
2023-04-18T10:21:24.362Z,100815.81
2023-04-18T10:23:53.507Z,100812.47
2023-04-18T10:26:21.750Z,100807.63
2023-04-18T10:28:55.119Z,100803.75
2023-04-18T10:31:24.290Z,100803.78
2023-04-18T10:36:28.558Z,100790.28
2023-04-18T10:39:03.278Z,100799.69
2023-04-18T10:41:32.122Z,100787.22
2023-04-18T10:44:19.545Z,100790.97
2023-04-18T10:47:33.565Z,100789.97
2023-04-18T10:50:06.829Z,100776.63
2023-04-18T10:52:35.298Z,100780.19
2023-04-18T10:55:10.465Z,100779.50
2023-04-18T10:57:42.172Z,100766.06
2023-04-18T11:00:12.521Z,100777.22
2023-04-18T11:02:41.296Z,100774.69
2023-04-18T11:05:11.047Z,100781.72
2023-04-18T11:07:40.942Z,100765.66
2023-04-18T11:10:11.309Z,100772.63
2023-04-18T11:12:40.961Z,100758.09
2023-04-18T11:15:13.018Z,100750.44
2023-04-18T11:17:41.724Z,100747.97
2023-04-18T11:20:14.954Z,100746.72
2023-04-18T11:22:48.278Z,100753.56
2023-04-18T11:25:21.051Z,100754.00
2023-04-18T11:27:54.314Z,100743.56
2023-04-18T11:30:23.186Z,100744.19
2023-04-18T11:32:51.549Z,100737.94
2023-04-18T11:35:19.951Z,100741.06
2023-04-18T11:37:50.252Z,100730.06
2023-04-18T11:40:20.670Z,100735.28
2023-04-18T11:42:48.490Z,100744.03
2023-04-18T11:45:16.814Z,100737.34
2023-04-18T11:47:46.916Z,100749.81
2023-04-18T11:50:15.350Z,100736.53
2023-04-18T11:52:43.494Z,100740.25
2023-04-18T11:55:13.515Z,100743.75
2023-04-18T11:57:42.861Z,100739.59
2023-04-18T12:00:12.325Z,100737.16
2023-04-18T12:02:44.646Z,100745.25
2023-04-18T12:05:15.177Z,100741.09
2023-04-18T12:07:46.283Z,100746.91
2023-04-18T12:10:25.991Z,100751.69
2023-04-18T12:12:59.676Z,100740.88
2023-04-18T12:15:37.755Z,100756.00
2023-04-18T12:18:11.660Z,100740.84
2023-04-18T12:20:51.691Z,100735.84
2023-04-18T12:23:36.344Z,100744.78
2023-04-18T12:26:05.812Z,100741.88
2023-04-18T12:28:40.093Z,100738.81
2023-04-18T12:31:08.443Z,100738.19
2023-04-18T12:33:37.013Z,100725.94
2023-04-18T12:36:09.420Z,100723.84
2023-04-18T12:38:38.288Z,100725.94
2023-04-18T12:41:06.239Z,100732.78
2023-04-18T12:43:37.268Z,100746.50
2023-04-18T12:46:06.522Z,100736.34
2023-04-18T12:48:34.323Z,100729.88
2023-04-18T12:51:02.446Z,100747.97
2023-04-18T12:53:29.968Z,100745.06
2023-04-18T12:55:57.824Z,100734.47
2023-04-18T12:58:26.022Z,100739.00
2023-04-18T13:00:55.015Z,100735.69
2023-04-18T13:03:27.187Z,100735.50
2023-04-18T13:05:57.023Z,100729.91
2023-04-18T13:08:30.049Z,100740.06
2023-04-18T13:11:04.474Z,100734.66
2023-04-18T13:13:33.850Z,100740.28
2023-04-18T13:16:06.166Z,100739.88
2023-04-18T13:18:37.181Z,100743.81
2023-04-18T13:21:07.608Z,100747.34
2023-04-18T13:23:36.786Z,100742.75
2023-04-18T13:26:09.031Z,100740.69
2023-04-18T13:28:36.949Z,100740.06
2023-04-18T13:31:04.931Z,100746.50
2023-04-18T13:33:32.678Z,100740.69
2023-04-18T13:36:02.962Z,100745.47
2023-04-18T13:38:33.700Z,100743.59
2023-04-18T13:41:11.393Z,100746.09
2023-04-18T13:43:40.902Z,100740.06
2023-04-18T13:46:19.485Z,100739.84
2023-04-18T13:48:47.232Z,100751.06
2023-04-18T13:51:16.232Z,100738.81
2023-04-18T13:53:43.879Z,100747.06
2023-04-18T13:56:12.465Z,100748.53
2023-04-18T13:58:40.123Z,100749.94
2023-04-18T14:01:07.894Z,100746.94
2023-04-18T14:03:40.628Z,100743.09
2023-04-18T14:06:09.931Z,100744.19
2023-04-18T14:08:39.973Z,100740.06
2023-04-18T14:11:07.822Z,100738.47
2023-04-18T14:13:35.824Z,100740.88
2023-04-18T14:16:06.609Z,100733.56
2023-04-18T14:18:35.557Z,100728.19
2023-04-18T14:21:03.708Z,100735.25
2023-04-18T14:23:31.590Z,100741.47
2023-04-18T14:26:01.301Z,100734.41
2023-04-18T14:28:29.261Z,100732.53
2023-04-18T14:30:59.938Z,100732.56
2023-04-18T14:33:53.829Z,100740.09
2023-04-18T14:36:23.785Z,100739.44
2023-04-18T14:38:51.417Z,100743.63
2023-04-18T14:41:21.793Z,100746.72
2023-04-18T14:43:50.057Z,100747.75
2023-04-18T14:46:18.254Z,100742.56
2023-04-18T14:48:48.731Z,100742.34
2023-04-18T14:51:18.034Z,100741.13
2023-04-18T14:53:47.278Z,100731.97
2023-04-18T14:56:16.018Z,100731.75
2023-04-18T14:58:45.127Z,100732.34
2023-04-18T15:01:15.149Z,100727.94
2023-04-18T15:03:44.119Z,100742.94
2023-04-18T15:06:12.440Z,100739.84
2023-04-18T15:08:40.824Z,100728.41
2023-04-18T15:11:09.688Z,100730.50
2023-04-18T15:13:37.874Z,100730.88
2023-04-18T15:16:09.509Z,100738.16
2023-04-18T15:18:39.820Z,100735.69
2023-04-18T15:21:07.520Z,100744.00
2023-04-18T15:23:36.869Z,100738.38
2023-04-18T15:26:07.682Z,100738.38
2023-04-18T15:28:37.516Z,100746.50
2023-04-18T15:31:09.529Z,100750.47
2023-04-18T15:33:42.546Z,100728.63
2023-04-18T15:36:10.966Z,100734.03
2023-04-18T15:41:26.232Z,100742.97
2023-04-18T15:43:54.162Z,100747.97
2023-04-18T15:46:23.302Z,100739.81
2023-04-18T15:48:51.079Z,100746.09
2023-04-18T15:51:18.957Z,100738.41
2023-04-18T15:53:47.128Z,100743.16
2023-04-18T15:56:15.013Z,100734.47
2023-04-18T15:58:43.045Z,100739.19
2023-04-18T16:01:13.083Z,100743.78
2023-04-18T16:03:46.224Z,100731.50
2023-04-18T16:06:17.665Z,100743.97
2023-04-18T16:08:46.529Z,100753.13
2023-04-18T16:11:31.971Z,100762.69
2023-04-18T16:13:59.685Z,100750.66
2023-04-18T16:16:29.434Z,100754.41
2023-04-18T16:19:26.606Z,100762.69
2023-04-18T16:21:59.675Z,100757.59
2023-04-18T16:25:09.533Z,100767.09
2023-04-18T16:27:37.307Z,100764.22
2023-04-18T16:30:06.381Z,100764.59
2023-04-18T16:32:37.362Z,100767.88
2023-04-18T16:37:53.625Z,100771.47
2023-04-18T16:40:30.707Z,100772.91
2023-04-18T16:43:01.485Z,100776.53
2023-04-18T16:45:37.967Z,100779.31
2023-04-18T16:48:09.634Z,100782.00
2023-04-18T16:50:39.857Z,100778.38
2023-04-18T16:53:08.825Z,100779.06
2023-04-18T16:55:36.541Z,100788.97
2023-04-18T16:58:11.962Z,100794.75
2023-04-18T17:00:48.521Z,100789.09
2023-04-18T17:03:17.976Z,100787.69
2023-04-18T17:05:49.652Z,100788.00
2023-04-18T17:11:39.682Z,100805.34
2023-04-18T17:14:24.812Z,100807.78
2023-04-18T17:16:57.260Z,100801.84
2023-04-18T17:19:28.454Z,100810.66
2023-04-18T17:22:10.339Z,100817.91
2023-04-18T17:25:11.691Z,100804.97
2023-04-18T17:27:43.508Z,100817.78
2023-04-18T17:30:40.549Z,100823.41
2023-04-18T17:33:14.090Z,100811.75
2023-04-18T17:36:14.946Z,100823.16
2023-04-18T17:39:01.239Z,100829.38
2023-04-18T17:41:33.018Z,100829.13
2023-04-18T17:44:05.746Z,100836.81
2023-04-18T17:46:51.863Z,100824.84
2023-04-18T17:52:50.861Z,100849.19
2023-04-18T17:55:22.606Z,100851.97
2023-04-18T17:57:51.141Z,100854.88
2023-04-18T18:00:43.006Z,100861.06
2023-04-18T18:03:23.641Z,100866.75
2023-04-18T18:06:09.489Z,100868.03
2023-04-18T18:11:43.287Z,100875.16
2023-04-18T18:14:31.714Z,100875.53
2023-04-18T18:17:04.612Z,100886.47
2023-04-18T18:19:45.345Z,100880.09
2023-04-18T18:23:11.960Z,100862.84
2023-04-18T18:25:48.966Z,100882.22
2023-04-18T18:28:55.177Z,100882.78
2023-04-18T18:37:52.899Z,100892.41
2023-04-18T18:40:24.069Z,100893.09
2023-04-18T18:42:55.098Z,100897.16
2023-04-18T18:45:25.858Z,100894.00
2023-04-18T18:47:54.315Z,100897.81
2023-04-18T18:50:39.997Z,100892.53
2023-04-18T18:53:09.965Z,100910.31
2023-04-18T18:55:40.912Z,100920.88
2023-04-18T18:58:13.093Z,100911.53
2023-04-18T19:00:40.999Z,100920.59
2023-04-18T19:05:56.477Z,100920.69
2023-04-18T19:11:29.116Z,100923.38
2023-04-18T19:13:58.146Z,100926.19
2023-04-18T19:16:28.800Z,100930.31
2023-04-18T19:18:56.561Z,100928.63
2023-04-18T19:24:22.185Z,100937.00
2023-04-18T19:29:37.108Z,100937.06
2023-04-18T19:32:09.062Z,100938.28
2023-04-18T19:34:37.085Z,100937.19
2023-04-18T19:37:09.345Z,100942.22
2023-04-18T19:39:36.990Z,100933.00
2023-04-18T19:42:06.569Z,100937.78
2023-04-18T19:44:34.128Z,100933.00
2023-04-18T19:47:05.975Z,100937.28
2023-04-18T19:49:41.581Z,100936.84
2023-04-18T19:52:11.131Z,100943.66
2023-04-18T19:54:38.736Z,100937.25
2023-04-18T19:57:06.353Z,100939.94
2023-04-18T19:59:33.975Z,100932.97
2023-04-18T20:02:05.053Z,100938.28
2023-04-18T20:04:34.292Z,100932.59
2023-04-18T20:07:04.362Z,100934.50
2023-04-18T20:09:45.684Z,100937.88
2023-04-18T20:12:17.335Z,100943.25
2023-04-18T20:14:45.481Z,100943.94
2023-04-18T20:17:31.496Z,100949.75
2023-04-18T20:20:11.526Z,100939.72
2023-04-18T20:22:41.814Z,100938.63
2023-04-18T20:25:11.084Z,100946.94
2023-04-18T20:27:38.863Z,100943.47
2023-04-18T20:30:13.959Z,100939.22
2023-04-18T20:32:41.631Z,100934.19
2023-04-18T20:35:09.759Z,100943.25
2023-04-18T20:37:38.985Z,100943.97
2023-04-18T20:40:10.888Z,100933.69
2023-04-18T20:42:40.320Z,100935.03
2023-04-18T20:45:11.495Z,100942.97
2023-04-18T20:47:41.105Z,100939.00
2023-04-18T20:50:18.540Z,100938.13
2023-04-18T20:52:46.549Z,100942.47
2023-04-18T20:55:16.688Z,100944.31
2023-04-18T20:57:45.746Z,100949.75
2023-04-18T21:00:15.906Z,100951.03
2023-04-18T21:02:44.828Z,100950.69
2023-04-18T21:05:12.574Z,100958.19
2023-04-18T21:07:40.228Z,100952.06
2023-04-18T21:10:09.971Z,100949.44
2023-04-18T21:12:38.251Z,100961.13
2023-04-18T21:17:43.302Z,100949.56
2023-04-18T21:20:14.439Z,100957.59
2023-04-18T21:22:42.337Z,100953.91
2023-04-18T21:25:14.171Z,100953.72
2023-04-18T21:27:42.000Z,100955.53
2023-04-18T21:30:10.317Z,100953.88
2023-04-18T21:32:41.386Z,100955.06
2023-04-18T21:35:16.098Z,100953.25
2023-04-18T21:37:45.280Z,100949.44
2023-04-18T21:40:17.968Z,100952.94
2023-04-18T21:42:52.095Z,100948.66
2023-04-18T21:45:21.391Z,100954.03
2023-04-18T21:47:52.946Z,100951.50
2023-04-18T21:50:26.844Z,100953.03
2023-04-18T21:52:55.820Z,100957.75
2023-04-18T21:55:27.103Z,100953.34
2023-04-18T21:58:00.170Z,100963.22
2023-04-18T22:00:36.532Z,100952.94
2023-04-18T22:03:11.493Z,100959.84
2023-04-18T22:05:42.424Z,100953.72
2023-04-18T22:08:15.095Z,100956.19
2023-04-18T22:10:49.946Z,100957.97
2023-04-18T22:13:19.321Z,100961.41
2023-04-18T22:15:53.661Z,100962.38
2023-04-18T22:18:24.495Z,100956.66
2023-04-18T22:29:11.472Z,100958.63
2023-04-18T22:31:52.188Z,100955.94
2023-04-18T22:34:36.841Z,100954.56
2023-04-18T22:37:09.150Z,100962.16
2023-04-18T22:45:18.108Z,100954.97
2023-04-18T22:48:17.581Z,100952.94
2023-04-18T22:51:01.959Z,100954.97
2023-04-18T22:59:27.108Z,100961.13
2023-04-18T23:02:09.280Z,100962.34
2023-04-18T23:07:43.290Z,100956.66
2023-04-18T23:10:15.972Z,100963.53
2023-04-18T23:12:45.855Z,100963.34
2023-04-18T23:18:03.512Z,100960.66
2023-04-18T23:26:05.634Z,100954.22
2023-04-18T23:28:34.144Z,100954.03
2023-04-18T23:31:02.868Z,100962.44
2023-04-18T23:33:33.753Z,100954.28
2023-04-18T23:36:01.600Z,100955.94
2023-04-18T23:38:29.301Z,100954.38
2023-04-18T23:40:57.461Z,100962.38
2023-04-18T23:43:25.529Z,100960.06
2023-04-18T23:45:56.331Z,100961.19
2023-04-18T23:48:26.432Z,100955.16
2023-04-18T23:50:56.840Z,100954.44
2023-04-18T23:53:24.856Z,100954.88
2023-04-18T23:55:54.853Z,100951.25
2023-04-18T23:58:22.554Z,100947.34
